Flight Track Log - Related Links

Times and Time Zones

All times are in EDT time to prevent confusion due to time zone crossing. See the CHH7668 flight status page for this flight to view local times or setup timezone preferences in your user account.

Time Position Orientation Groundspeed Altitude Reporting Facility
EDT Latitude Longitude Course Direction KTS MPH feet Rate Location/Type
Wed 11:26:00 AM 25.3090 109.9738 327° Northwest  Level Estimated
Wed 11:27:00 AM 25.3998 109.9083 327° Northwest  Level Estimated
Wed 11:28:00 AM 25.4907 109.8427 327° Northwest  Level Estimated
Wed 11:29:00 AM 25.5814 109.7770 327° Northwest  Level Estimated
Wed 11:30:00 AM 25.6722 109.7112 327° Northwest  Level Estimated
Wed 11:31:00 AM 25.7629 109.6453 327° Northwest  Level Estimated
Wed 11:32:00 AM 25.8536 109.5793 327° Northwest  Level Estimated
Wed 11:33:00 AM 25.9443 109.5132 327° Northwest  Level Estimated
Wed 11:34:00 AM 26.0349 109.4470 327° Northwest  Level Estimated
Wed 11:35:00 AM 26.1255 109.3807 327° Northwest  Level Estimated
Wed 11:36:00 AM 26.2161 109.3142 327° Northwest  Level Estimated
Wed 11:37:00 AM 26.3067 109.2477 327° Northwest  Level Estimated
Wed 11:38:00 AM 26.3972 109.1811 327° Northwest  Level Estimated
Wed 11:39:00 AM 26.4877 109.1144 327° Northwest  Level Estimated
Wed 11:40:00 AM 26.5781 109.0476 327° Northwest  Level Estimated
Wed 11:41:00 AM 26.6686 108.9806 327° Northwest  Level Estimated
Wed 11:42:00 AM 26.7555 108.9162 326° Northwest  Level Estimated
Wed 11:43:00 AM 26.8424 108.8516 326° Northwest  Level Estimated
Wed 11:44:00 AM 26.9293 108.7869 326° Northwest  Level Estimated
Wed 11:45:00 AM 27.0161 108.7222 326° Northwest  Level Estimated
Wed 11:46:00 AM 27.1029 108.6573 326° Northwest  Level Estimated
Wed 11:47:00 AM 27.1896 108.5924 326° Northwest  Level Estimated
Wed 11:48:00 AM 27.2764 108.5273 326° Northwest  Level Estimated
Wed 11:49:00 AM 27.3631 108.4622 326° Northwest  Level Estimated
Wed 11:50:00 AM 27.4498 108.3969 326° Northwest  Level Estimated
Wed 11:51:00 AM 27.5364 108.3315 326° Northwest  Level Estimated
Wed 11:52:00 AM 27.6231 108.2661 326° Northwest  Level Estimated
Wed 11:53:00 AM 27.7096 108.2005 326° Northwest  Level Estimated
Wed 11:54:00 AM 27.7962 108.1348 326° Northwest  Level Estimated
Wed 11:55:00 AM 27.8827 108.0690 326° Northwest  Level Estimated
Wed 11:56:00 AM 27.9692 108.0031 326° Northwest  Level Estimated
Wed 11:57:00 AM 28.0557 107.9371 326° Northwest  Level Estimated
Wed 11:58:00 AM 28.1421 107.8710 326° Northwest  Level Estimated
Wed 11:59:00 AM 28.2285 107.8048 326° Northwest  Level Estimated
Wed 12:00:00 PM 28.3149 107.7385 326° Northwest  Level Estimated
Wed 12:01:00 PM 28.4012 107.6721 326° Northwest  Level Estimated
Wed 12:02:00 PM 28.4876 107.6056 326° Northwest  Level Estimated
Wed 12:03:00 PM 28.5738 107.5389 326° Northwest  Level Estimated
Wed 12:04:00 PM 28.6601 107.4722 326° Northwest  Level Estimated
Wed 12:05:00 PM 28.7463 107.4053 326° Northwest  Level Estimated
Wed 12:06:00 PM 28.8324 107.3383 326° Northwest  Level Estimated
Wed 12:07:00 PM 28.9186 107.2713 326° Northwest  Level Estimated
Wed 12:08:00 PM 29.0047 107.2041 326° Northwest  Level Estimated
Wed 12:09:00 PM 29.0908 107.1368 326° Northwest  Level Estimated
Wed 12:10:00 PM 29.1768 107.0694 326° Northwest  Level Estimated
Wed 12:11:00 PM 29.2628 107.0018 326° Northwest  Level Estimated
Wed 12:12:00 PM 29.3488 106.9342 326° Northwest  Level Estimated
Wed 12:13:00 PM 29.4347 106.8664 326° Northwest  Level Estimated
Wed 12:14:00 PM 29.5206 106.7986 325° Northwest  Level Estimated
Wed 12:15:00 PM 29.6065 106.7306 325° Northwest  Level Estimated
Wed 12:16:00 PM 29.6923 106.6625 325° Northwest  Level Estimated
Wed 12:17:00 PM 29.7194 106.6410 325° Northwest  Level Estimated
Wed 12:18:00 PM 29.7194 106.6410 60° Northeast  Level Estimated
Wed 12:19:00 PM 29.7194 106.6410 60° Northeast  Level Estimated
Wed 12:20:00 PM 29.7194 106.6410 60° Northeast  Level Estimated
Wed 12:21:00 PM 29.7194 106.6410 60° Northeast  Level Estimated
Wed 12:22:00 PM 29.7194 106.6410 60° Northeast  Level Estimated
Wed 12:23:00 PM 29.7194 106.6410 60° Northeast  Level Estimated
Wed 12:24:00 PM 29.7194 106.6410 60° Northeast  Level Estimated
Wed 12:25:00 PM 29.7194 106.6410 60° Northeast  Level Estimated
Wed 12:26:00 PM 29.7194 106.6410 60° Northeast  Level Estimated

Login

Don't have an account? Register now (free) for customized features, flight alerts, and more!